Time;durP1;ratioP1;P1;durP2;ratioP2;P2;SDS_P1;SDS_P2;PMS_P1;PMS_P2;Temp;Humidity;BMP_temperature;BMP_pressure;BME280_temperature;BME280_humidity;BME280_pressure;Samples;Min_cycle;Max_cycle;Signal;HPM_P1;HPM_P2
2022/12/07 00:02:00;;;;;;;;;;;;;;;;;;5012622;28;20061;-75
2022/12/07 00:04:26;;;;;;;14.52;9.27;;;;;;;;;;5014225;28;20383;-75
2022/12/07 00:06:53;;;;;;;14.10;8.95;;;;;;;;;;5014129;28;20064;-75
2022/12/07 00:09:19;;;;;;;14.13;9.63;;;;;;;;;;4996424;28;20022;-75
2022/12/07 00:11:50;;;;;;;14.55;9.63;;;;;;;;;;5013804;28;20041;-75
2022/12/07 00:14:22;;;;;;;16.98;10.50;;;;;;;;;;5013871;28;20500;-75
2022/12/07 00:16:51;;;;;;;13.65;9.15;;;;;;;;;;5008667;28;20108;-76
2022/12/07 00:19:20;;;;;;;16.08;9.73;;;;;;;;;;5015383;28;20041;-74
2022/12/07 00:21:46;;;;;;;13.82;9.55;;;;;;;;;;4995706;28;20088;-74
2022/12/07 00:24:17;;;;;;;14.93;9.98;;;;;;;;;;5013615;28;20423;-75
2022/12/07 00:26:43;;;;;;;;;;;;;;;;;;4980465;28;20506;-75
2022/12/07 00:29:21;;;;;;;15.90;9.55;;;;;;;;;;5013389;28;19906;-75
2022/12/07 00:31:47;;;;;;;16.05;9.90;;;;;;;;;;5012599;28;20539;-74
2022/12/07 00:34:20;;;;;;;15.90;9.65;;;;;;;;;;5013386;28;20202;-75
2022/12/07 00:36:55;;;;;;;13.30;9.15;;;;;;;;;;5011951;28;20030;-75
2022/12/07 00:39:23;;;;;;;15.35;10.77;;;;;;;;;;5013269;28;20025;-75
2022/12/07 00:41:49;;;;;;;15.73;9.98;;;;;;;;;;5013419;28;20495;-75
2022/12/07 00:44:26;;;;;;;16.67;10.80;;;;;;;;;;5011508;28;20468;-75
2022/12/07 00:46:58;;;;;;;15.80;10.43;;;;;;;;;;5012005;28;20308;-75
2022/12/07 00:49:27;;;;;;;15.75;9.60;;;;;;;;;;5026944;28;20750;-74
2022/12/07 00:51:53;;;;;;;16.35;10.00;;;;;;;;;;4995579;28;20045;-75
2022/12/07 00:54:24;;;;;;;16.52;10.77;;;;;;;;;;5012547;28;20117;-74
2022/12/07 00:56:56;;;;;;;15.63;9.77;;;;;;;;;;5022861;28;20091;-74
2022/12/07 00:59:24;;;;;;;16.55;10.43;;;;;;;;;;5013642;28;20076;-75
2022/12/07 01:01:51;;;;;;;16.85;10.90;;;;;;;;;;5011872;28;20084;-76
2022/12/07 01:04:17;;;;;;;18.35;10.98;;;;;;;;;;5011309;28;20104;-75
2022/12/07 01:06:43;;;;;;;15.85;10.63;;;;;;;;;;5012736;28;20022;-76
2022/12/07 01:09:09;;;;;;;18.33;11.20;;;;;;;;;;5012631;28;20096;-77
2022/12/07 01:11:35;;;;;;;17.00;11.18;;;;;;;;;;5012295;28;20034;-75
2022/12/07 01:14:02;;;;;;;16.80;10.43;;;;;;;;;;5013119;28;20461;-76
2022/12/07 01:16:29;;;;;;;19.08;10.60;;;;;;;;;;5006871;28;20065;-75
2022/12/07 01:18:59;;;;;;;20.27;11.43;;;;;;;;;;5024520;28;20050;-75
2022/12/07 01:21:26;;;;;;;19.42;11.60;;;;;;;;;;5013677;28;20105;-75
2022/12/07 01:23:55;;;;;;;18.10;10.73;;;;;;;;;;5014149;28;20042;-75
2022/12/07 01:26:23;;;;;;;19.00;11.13;;;;;;;;;;5012665;28;20022;-75
2022/12/07 01:28:54;;;;;;;18.58;11.85;;;;;;;;;;5013146;28;20435;-72
2022/12/07 01:31:20;;;;;;;;;;;;;;;;;;5013338;28;20021;-76
2022/12/07 01:33:49;;;;;;;21.33;11.93;;;;;;;;;;5012843;28;19963;-74
2022/12/07 01:36:18;;;;;;;17.02;10.63;;;;;;;;;;5011087;28;20190;-76
2022/12/07 01:38:45;;;;;;;18.92;11.07;;;;;;;;;;5011083;28;20022;-76
2022/12/07 01:41:11;;;;;;;16.85;10.35;;;;;;;;;;5012290;28;20116;-75
2022/12/07 01:43:37;;;;;;;15.73;10.48;;;;;;;;;;5012281;28;20030;-75
2022/12/07 01:46:04;;;;;;;18.02;10.77;;;;;;;;;;5012083;28;20057;-75
2022/12/07 01:48:38;;;;;;;19.52;11.85;;;;;;;;;;5010960;28;20018;-75
2022/12/07 01:51:06;;;;;;;16.38;9.93;;;;;;;;;;5011018;28;20048;-73
2022/12/07 01:53:40;;;;;;;13.07;9.07;;;;;;;;;;5012458;28;20026;-73
2022/12/07 01:56:08;;;;;;;15.95;9.55;;;;;;;;;;5011187;28;20037;-75
2022/12/07 01:58:37;;;;;;;14.95;9.38;;;;;;;;;;5011334;28;20027;-74
2022/12/07 02:01:07;;;;;;;14.98;9.88;;;;;;;;;;5012140;28;20022;-75
2022/12/07 02:03:38;;;;;;;16.60;10.75;;;;;;;;;;5027484;28;20052;-75
2022/12/07 02:06:07;;;;;;;18.23;10.32;;;;;;;;;;5012097;28;20032;-75
2022/12/07 02:08:34;;;;;;;14.57;9.93;;;;;;;;;;5010347;28;20053;-75
2022/12/07 02:11:15;;;;;;;18.67;10.75;;;;;;;;;;5011515;28;20049;-75
2022/12/07 02:13:53;;;;;;;16.33;9.48;;;;;;;;;;5011773;28;20534;-75
2022/12/07 02:16:33;;;;;;;15.13;10.07;;;;;;;;;;5079840;22;20048;-75
2022/12/07 02:19:17;;;;;;;14.02;9.63;;;;;;;;;;5091777;28;20504;-77
2022/12/07 02:21:46;;;;;;;17.60;10.38;;;;;;;;;;5092132;28;20023;-74
2022/12/07 02:24:34;;;;;;;15.98;9.98;;;;;;;;;;5091632;28;20429;-75
2022/12/07 02:27:19;;;;;;;15.55;9.38;;;;;;;;;;5053087;28;20024;-74
2022/12/07 02:30:04;;;;;;;17.63;10.27;;;;;;;;;;5068074;28;20021;-75
2022/12/07 02:32:33;;;;;;;14.40;9.80;;;;;;;;;;5068511;28;20047;-75
2022/12/07 02:34:59;;;;;;;14.48;8.98;;;;;;;;;;5120048;23;20252;-75
2022/12/07 02:37:28;;;;;;;13.98;9.35;;;;;;;;;;5047928;28;20091;-76
2022/12/07 02:39:58;;;;;;;15.93;9.38;;;;;;;;;;5053665;28;20033;-76
2022/12/07 02:42:28;;;;;;;17.87;11.53;;;;;;;;;;5049202;28;20121;-76
2022/12/07 02:44:54;;;;;;;16.65;10.70;;;;;;;;;;5033700;28;20079;-75
2022/12/07 02:47:22;;;;;;;17.70;11.18;;;;;;;;;;5032894;28;20036;-75
2022/12/07 02:49:49;;;;;;;17.15;10.70;;;;;;;;;;5046678;28;20026;-75
2022/12/07 02:52:16;;;;;;;17.80;11.10;;;;;;;;;;5048881;28;20037;-76
2022/12/07 02:54:42;;;;;;;18.48;11.05;;;;;;;;;;5067991;22;20040;-73
2022/12/07 02:57:11;;;;;;;18.75;11.43;;;;;;;;;;5024428;28;20037;-76
2022/12/07 02:59:40;;;;;;;18.67;10.85;;;;;;;;;;5043475;28;20017;-75
2022/12/07 03:02:09;;;;;;;18.92;10.95;;;;;;;;;;5033637;28;20033;-75
2022/12/07 03:04:38;;;;;;;16.05;10.60;;;;;;;;;;5013204;28;20033;-74
2022/12/07 03:07:29;;;;;;;20.50;12.20;;;;;;;;;;5013523;28;20018;-73
2022/12/07 03:10:03;;;;;;;18.48;12.00;;;;;;;;;;5036480;28;20071;-76
2022/12/07 03:12:37;;;;;;;19.80;12.18;;;;;;;;;;5034016;28;20031;-75
2022/12/07 03:15:11;;;;;;;19.10;13.07;;;;;;;;;;5017107;28;20029;-76
2022/12/07 03:17:38;;;;;;;20.00;12.52;;;;;;;;;;5018572;28;20041;-76
2022/12/07 03:20:07;;;;;;;20.55;12.93;;;;;;;;;;5031455;28;20026;-75
2022/12/07 03:22:34;;;;;;;20.60;13.90;;;;;;;;;;5028447;28;20502;-76
2022/12/07 03:25:04;;;;;;;19.40;12.68;;;;;;;;;;5054889;28;20028;-75
2022/12/07 03:27:34;;;;;;;19.88;13.07;;;;;;;;;;5044028;28;20025;-75
2022/12/07 03:30:06;;;;;;;20.92;12.50;;;;;;;;;;5048839;28;20343;-75
2022/12/07 03:32:41;;;;;;;22.52;13.43;;;;;;;;;;5017910;28;20116;-75
2022/12/07 03:35:33;;;;;;;23.02;14.20;;;;;;;;;;5041491;28;20033;-75
2022/12/07 03:38:01;;;;;;;21.98;13.50;;;;;;;;;;5022276;28;20025;-75
2022/12/07 03:40:40;;;;;;;25.42;15.13;;;;;;;;;;5038355;28;20139;-76
2022/12/07 03:43:06;;;;;;;22.25;14.20;;;;;;;;;;5047455;28;20017;-75
2022/12/07 03:45:40;;;;;;;24.58;14.60;;;;;;;;;;5039095;28;20021;-75
2022/12/07 03:48:19;;;;;;;23.20;14.32;;;;;;;;;;5025629;28;20029;-75
2022/12/07 03:50:59;;;;;;;22.58;13.27;;;;;;;;;;5045517;28;20043;-74
2022/12/07 03:53:35;;;;;;;21.70;13.63;;;;;;;;;;5043914;28;20120;-75
2022/12/07 03:56:02;;;;;;;25.50;14.57;;;;;;;;;;5060088;28;20036;-76
2022/12/07 03:58:31;;;;;;;21.27;12.82;;;;;;;;;;5042743;28;20036;-75
2022/12/07 04:00:57;;;;;;;20.33;12.63;;;;;;;;;;5048416;28;20017;-76
2022/12/07 04:03:26;;;;;;;23.77;13.82;;;;;;;;;;5043503;28;20048;-78
2022/12/07 04:05:52;;;;;;;19.45;12.70;;;;;;;;;;5036665;28;20112;-76
2022/12/07 04:08:23;;;;;;;22.58;14.52;;;;;;;;;;5019611;28;20060;-76
2022/12/07 04:10:50;;;;;;;21.92;13.35;;;;;;;;;;5053841;28;20409;-76
2022/12/07 04:13:16;;;;;;;19.15;12.48;;;;;;;;;;5036018;28;20063;-76
2022/12/07 04:15:42;;;;;;;20.55;13.18;;;;;;;;;;5037559;23;20124;-77
2022/12/07 04:18:10;;;;;;;23.67;13.55;;;;;;;;;;5031728;28;20049;-77
2022/12/07 04:20:42;;;;;;;21.23;12.77;;;;;;;;;;5034710;28;20021;-75
2022/12/07 04:23:13;;;;;;;20.70;12.07;;;;;;;;;;5028195;28;20124;-75
2022/12/07 04:25:39;;;;;;;21.33;11.93;;;;;;;;;;5045238;28;20028;-76
2022/12/07 04:28:08;;;;;;;18.25;11.77;;;;;;;;;;5037547;28;20108;-75
2022/12/07 04:30:37;;;;;;;22.77;13.18;;;;;;;;;;5032884;28;20026;-75
2022/12/07 04:33:03;;;;;;;20.85;12.73;;;;;;;;;;5025119;28;20018;-76
2022/12/07 04:35:29;;;;;;;20.77;13.27;;;;;;;;;;5025390;28;20032;-75
2022/12/07 04:37:59;;;;;;;22.67;13.32;;;;;;;;;;5039364;28;20023;-75
2022/12/07 04:40:25;;;;;;;21.60;13.07;;;;;;;;;;5030869;28;20022;-76
2022/12/07 04:42:53;;;;;;;18.95;11.30;;;;;;;;;;5034086;28;20460;-77
2022/12/07 04:45:22;;;;;;;20.85;12.75;;;;;;;;;;5041901;28;20071;-75
2022/12/07 04:47:51;;;;;;;19.10;11.75;;;;;;;;;;5052675;28;20308;-75
2022/12/07 04:50:17;;;;;;;19.17;12.02;;;;;;;;;;5028214;28;20034;-75
2022/12/07 04:52:43;;;;;;;20.27;12.02;;;;;;;;;;5015914;28;20017;-76
2022/12/07 04:55:09;;;;;;;21.02;11.45;;;;;;;;;;5023839;28;20018;-76
2022/12/07 04:57:35;;;;;;;21.08;11.98;;;;;;;;;;5032446;28;20033;-75
2022/12/07 05:00:07;;;;;;;20.48;11.45;;;;;;;;;;5026359;28;20022;-76
2022/12/07 05:02:33;;;;;;;17.48;10.57;;;;;;;;;;5014984;28;20036;-75
2022/12/07 05:05:05;;;;;;;19.75;11.40;;;;;;;;;;5025161;28;20038;-76
2022/12/07 05:07:33;;;;;;;17.98;10.82;;;;;;;;;;5043012;28;20162;-75
2022/12/07 05:10:13;;;;;;;19.95;11.23;;;;;;;;;;5016633;28;20156;-77
2022/12/07 05:12:47;;;;;;;18.90;11.02;;;;;;;;;;5036326;28;20021;-76
2022/12/07 05:15:16;;;;;;;15.77;10.65;;;;;;;;;;5043992;28;20056;-75
2022/12/07 05:17:42;;;;;;;16.23;10.27;;;;;;;;;;5027010;28;20025;-75
2022/12/07 05:20:09;;;;;;;17.73;10.18;;;;;;;;;;5027213;28;20053;-75
2022/12/07 05:22:37;;;;;;;16.15;10.00;;;;;;;;;;5011635;28;20052;-74
2022/12/07 05:25:04;;;;;;;19.75;11.25;;;;;;;;;;5018235;28;20491;-75
2022/12/07 05:27:30;;;;;;;16.40;10.05;;;;;;;;;;5023395;28;20032;-74
2022/12/07 05:29:56;;;;;;;16.55;10.55;;;;;;;;;;5025391;28;20104;-75
2022/12/07 05:32:25;;;;;;;17.13;10.32;;;;;;;;;;5016727;28;20030;-76
2022/12/07 05:34:57;;;;;;;20.88;11.40;;;;;;;;;;5086660;23;20018;-73
2022/12/07 05:37:34;;;;;;;;;;;;;;;;;;;;;
2022/12/07 05:40:05;;;;;;;16.13;10.00;;;;;;;;;;5032380;28;20022;-76
2022/12/07 05:42:34;;;;;;;;;;;;;;;;;;5032516;28;20053;-76
2022/12/07 05:45:00;;;;;;;11.88;7.75;;;;;;;;;;5028033;28;19906;-76
2022/12/07 05:47:26;;;;;;;13.73;8.75;;;;;;;;;;5013367;28;20042;-75
2022/12/07 05:49:52;;;;;;;14.35;8.63;;;;;;;;;;5016698;28;20399;-76
2022/12/07 05:52:21;;;;;;;12.75;7.70;;;;;;;;;;4998171;28;20028;-74
2022/12/07 05:54:47;;;;;;;12.18;7.60;;;;;;;;;;5027410;28;20025;-75
2022/12/07 05:57:13;;;;;;;11.85;7.28;;;;;;;;;;5006436;28;20113;-76
2022/12/07 05:59:39;;;;;;;9.57;6.80;;;;;;;;;;5012836;28;20025;-75
2022/12/07 06:02:13;;;;;;;12.23;6.35;;;;;;;;;;5006891;28;20372;-76
2022/12/07 06:04:46;;;;;;;12.20;7.10;;;;;;;;;;5012528;28;20137;-76
2022/12/07 06:07:17;;;;;;;10.27;7.78;;;;;;;;;;5022669;28;20128;-76
2022/12/07 06:09:45;;;;;;;10.68;6.28;;;;;;;;;;5020185;28;20032;-76
2022/12/07 06:14:57;;;;;;;9.32;5.90;;;;;;;;;;5045877;23;20024;-74
2022/12/07 06:17:27;;;;;;;11.13;5.75;;;;;;;;;;5041268;28;20023;-76
2022/12/07 06:19:53;;;;;;;11.25;6.85;;;;;;;;;;5050698;28;20401;-72
2022/12/07 06:22:33;;;;;;;9.10;6.05;;;;;;;;;;5032772;28;20071;-74
2022/12/07 06:25:02;;;;;;;10.82;6.07;;;;;;;;;;4931683;23;3602964;-75
2022/12/07 06:27:37;;;;;;;10.02;6.03;;;;;;;;;;5081238;28;20042;-75
2022/12/07 06:30:06;;;;;;;10.25;6.80;;;;;;;;;;5070722;28;20212;-74
2022/12/07 06:32:33;;;;;;;11.48;6.30;;;;;;;;;;5071613;28;20119;-75
2022/12/07 06:35:01;;;;;;;11.35;5.57;;;;;;;;;;5084570;22;20276;-77
2022/12/07 06:37:27;;;;;;;9.27;5.70;;;;;;;;;;5053599;28;20025;-77
2022/12/07 06:39:56;;;;;;;7.05;5.40;;;;;;;;;;5039921;28;20025;-76
2022/12/07 06:42:24;;;;;;;8.38;6.05;;;;;;;;;;5069662;28;20032;-73
2022/12/07 06:44:50;;;;;;;9.60;5.90;;;;;;;;;;5051863;28;20039;-75
2022/12/07 06:47:20;;;;;;;9.82;5.75;;;;;;;;;;5055411;28;20023;-77
2022/12/07 06:49:48;;;;;;;9.15;6.10;;;;;;;;;;5065586;28;20028;-72
2022/12/07 06:52:17;;;;;;;10.40;6.20;;;;;;;;;;5071734;28;20066;-76
2022/12/07 06:54:44;;;;;;;9.82;6.18;;;;;;;;;;5041869;28;20071;-75
2022/12/07 06:57:13;;;;;;;8.70;5.55;;;;;;;;;;5049398;28;20017;-75
2022/12/07 06:59:39;;;;;;;8.60;5.97;;;;;;;;;;5069992;28;20024;-76
2022/12/07 07:02:05;;;;;;;9.23;6.63;;;;;;;;;;5074829;28;20115;-76
2022/12/07 07:04:34;;;;;;;7.53;5.35;;;;;;;;;;5067226;28;20024;-74
2022/12/07 07:07:00;;;;;;;7.60;5.68;;;;;;;;;;5057510;28;20028;-74
2022/12/07 07:09:29;;;;;;;8.07;5.80;;;;;;;;;;5044254;28;20031;-74
2022/12/07 07:11:55;;;;;;;7.10;5.55;;;;;;;;;;5050165;28;20031;-75
2022/12/07 07:14:23;;;;;;;8.63;5.90;;;;;;;;;;5054311;28;20025;-75
2022/12/07 07:16:50;;;;;;;11.10;6.43;;;;;;;;;;5069046;28;20490;-75
2022/12/07 07:19:18;;;;;;;10.73;6.53;;;;;;;;;;5059416;28;20024;-76
2022/12/07 07:21:49;;;;;;;10.07;7.05;;;;;;;;;;5045727;28;20029;-76
2022/12/07 07:24:15;;;;;;;10.15;6.78;;;;;;;;;;5072068;28;20120;-76
2022/12/07 07:26:41;;;;;;;10.57;7.40;;;;;;;;;;5040966;28;20045;-75
2022/12/07 07:29:07;;;;;;;10.38;7.18;;;;;;;;;;5074127;28;20074;-77
2022/12/07 07:31:35;;;;;;;11.10;7.43;;;;;;;;;;5045191;28;20025;-77
2022/12/07 07:34:01;;;;;;;12.57;7.35;;;;;;;;;;5071082;28;20024;-77
2022/12/07 07:36:32;;;;;;;11.93;7.63;;;;;;;;;;5075462;28;20187;-76
2022/12/07 07:38:58;;;;;;;10.43;6.95;;;;;;;;;;5063893;28;20033;-78
2022/12/07 07:41:30;;;;;;;11.65;8.10;;;;;;;;;;5087606;28;20033;-76
2022/12/07 07:43:56;;;;;;;10.68;7.13;;;;;;;;;;5072688;28;20021;-75
2022/12/07 07:46:36;;;;;;;10.63;7.00;;;;;;;;;;5067014;28;20024;-76
2022/12/07 07:49:13;;;;;;;9.13;6.53;;;;;;;;;;5055949;28;20021;-79
2022/12/07 07:51:40;;;;;;;10.38;7.07;;;;;;;;;;5055011;28;20025;-78
2022/12/07 07:54:32;;;;;;;10.48;7.30;;;;;;;;;;5050382;28;20025;-77
2022/12/07 08:07:00;;;;;;;13.20;8.95;;;;;;;;;;4984674;28;20022;-75
2022/12/07 08:09:47;;;;;;;13.43;9.55;;;;;;;;;;5001707;28;20113;-76
2022/12/07 08:13:10;;;;;;;14.40;9.57;;;;;;;;;;4991020;28;20097;-76
2022/12/07 08:18:22;;;;;;;18.25;9.65;;;;;;;;;;924292;26;20338;-79
2022/12/07 08:21:05;;;;;;;12.77;9.35;;;;;;;;;;5024300;28;20049;-76
2022/12/07 08:23:39;;;;;;;14.82;10.82;;;;;;;;;;5046189;28;20131;-77
2022/12/07 08:26:22;;;;;;;14.25;10.40;;;;;;;;;;5062517;28;20521;-76
2022/12/07 08:29:09;;;;;;;;;;;;;;;;;;;;;
2022/12/07 08:31:36;;;;;;;13.98;10.07;;;;;;;;;;5061694;28;20025;-77
2022/12/07 08:34:19;;;;;;;16.75;10.30;;;;;;;;;;5067018;28;20025;-77
2022/12/07 08:40:36;;;;;;;;;;;;;;;;;;;;;
2022/12/07 08:43:19;;;;;;;13.25;9.00;;;;;;;;;;5080254;28;20032;-76
2022/12/07 08:46:06;;;;;;;15.10;9.55;;;;;;;;;;5153729;22;20045;-77
2022/12/07 08:51:50;;;;;;;17.35;9.05;;;;;;;;;;5039841;28;20029;-78
2022/12/07 08:57:17;;;;;;;11.43;8.68;;;;;;;;;;5040864;22;20132;-83
2022/12/07 08:59:46;;;;;;;8.98;6.13;;;;;;;;;;5022750;28;20344;-75
2022/12/07 09:02:35;;;;;;;13.70;7.70;;;;;;;;;;5024118;28;20037;-79
2022/12/07 09:05:21;;;;;;;9.57;7.38;;;;;;;;;;5029369;28;20111;-76
2022/12/07 09:10:42;;;;;;;10.63;7.43;;;;;;;;;;4980585;28;20026;-75
2022/12/07 09:13:11;;;;;;;;;;;;;;;;;;5031744;28;20034;-76
2022/12/07 09:15:37;;;;;;;8.68;6.50;;;;;;;;;;5034183;28;20351;-75
2022/12/07 09:18:03;;;;;;;11.73;7.88;;;;;;;;;;5052219;28;20151;-76
2022/12/07 09:20:34;;;;;;;10.50;6.68;;;;;;;;;;5038952;28;20076;-74
2022/12/07 09:23:06;;;;;;;9.48;6.93;;;;;;;;;;5049190;28;20036;-77
2022/12/07 09:25:33;;;;;;;10.27;6.88;;;;;;;;;;5038044;28;20471;-75
2022/12/07 09:31:26;;;;;;;9.45;5.68;;;;;;;;;;4994914;28;20026;-76
2022/12/07 09:34:26;;;;;;;9.63;5.32;;;;;;;;;;5010217;28;20448;-75
2022/12/07 09:36:58;;;;;;;12.45;7.10;;;;;;;;;;5041687;28;20473;-75
2022/12/07 09:39:41;;;;;;;8.48;5.20;;;;;;;;;;5042823;28;20557;-75
2022/12/07 09:42:36;;;;;;;10.38;6.15;;;;;;;;;;5037721;28;20040;-76
2022/12/07 09:45:10;;;;;;;11.77;5.95;;;;;;;;;;5048468;28;20021;-76
2022/12/07 09:50:38;;;;;;;7.80;5.20;;;;;;;;;;5014324;28;20560;-73
2022/12/07 09:53:12;;;;;;;7.97;5.47;;;;;;;;;;5034632;28;20025;-76
2022/12/07 09:55:44;;;;;;;7.70;5.25;;;;;;;;;;5043916;28;20344;-75
2022/12/07 09:58:25;;;;;;;9.50;4.82;;;;;;;;;;5040977;28;20031;-74
2022/12/07 10:00:54;;;;;;;6.75;5.40;;;;;;;;;;5034537;28;20183;-75
2022/12/07 10:03:28;;;;;;;8.32;5.47;;;;;;;;;;5050365;28;20037;-75
2022/12/07 10:06:20;;;;;;;9.13;5.97;;;;;;;;;;5050619;28;20025;-75
2022/12/07 10:08:49;;;;;;;9.77;5.43;;;;;;;;;;5043151;28;20028;-75
2022/12/07 10:11:24;;;;;;;10.48;5.63;;;;;;;;;;5036083;28;20084;-75
2022/12/07 10:14:28;;;;;;;11.07;5.47;;;;;;;;;;5043888;28;20037;-74
2022/12/07 10:16:57;;;;;;;8.65;5.43;;;;;;;;;;5048354;28;20029;-75
2022/12/07 10:19:27;;;;;;;8.25;5.32;;;;;;;;;;5036517;28;20027;-76
2022/12/07 10:22:03;;;;;;;9.20;4.97;;;;;;;;;;5052702;28;20025;-74
2022/12/07 10:24:42;;;;;;;12.90;5.68;;;;;;;;;;5037824;28;20025;-75
2022/12/07 10:27:23;;;;;;;10.02;5.22;;;;;;;;;;5031092;28;20035;-73
2022/12/07 10:30:01;;;;;;;13.45;5.88;;;;;;;;;;5031981;28;20014;-75
2022/12/07 10:32:59;;;;;;;7.65;5.00;;;;;;;;;;5045588;28;20117;-74
2022/12/07 10:35:43;;;;;;;10.57;5.38;;;;;;;;;;5014093;28;20061;-72
2022/12/07 10:38:20;;;;;;;10.00;5.32;;;;;;;;;;5042117;28;20075;-73
2022/12/07 10:40:46;;;;;;;7.95;5.22;;;;;;;;;;5035523;28;20029;-78
2022/12/07 10:43:12;;;;;;;9.88;5.80;;;;;;;;;;5034506;28;20498;-75
2022/12/07 10:45:50;;;;;;;11.80;5.65;;;;;;;;;;5044877;28;20029;-75
2022/12/07 10:48:19;;;;;;;6.28;4.40;;;;;;;;;;5031279;28;20022;-75
2022/12/07 10:51:24;;;;;;;9.48;5.82;;;;;;;;;;5047772;28;20032;-75
2022/12/07 10:54:08;;;;;;;10.82;5.78;;;;;;;;;;4993072;28;20124;-76
2022/12/07 10:56:40;;;;;;;8.90;5.60;;;;;;;;;;5009479;28;20115;-76
2022/12/07 10:59:06;;;;;;;;;;;;;;;;;;5029681;28;20045;-76
2022/12/07 11:01:43;;;;;;;10.57;5.13;;;;;;;;;;5038045;28;19962;-73
2022/12/07 11:04:12;;;;;;;8.93;5.40;;;;;;;;;;5052637;28;20032;-73
2022/12/07 11:06:42;;;;;;;7.95;4.95;;;;;;;;;;5036864;28;20080;-75
2022/12/07 11:09:23;;;;;;;8.38;5.30;;;;;;;;;;5029690;28;20116;-75
2022/12/07 11:11:49;;;;;;;8.07;5.05;;;;;;;;;;5035238;28;20365;-80
2022/12/07 11:14:34;;;;;;;8.73;5.18;;;;;;;;;;5048469;28;20029;-78
2022/12/07 11:17:06;;;;;;;13.98;6.03;;;;;;;;;;5038822;28;20083;-76
2022/12/07 11:19:51;;;;;;;7.85;4.35;;;;;;;;;;5033876;28;20028;-75
2022/12/07 11:22:29;;;;;;;10.10;4.97;;;;;;;;;;5048946;28;20068;-73
2022/12/07 11:25:14;;;;;;;11.93;5.00;;;;;;;;;;5036963;28;20026;-76
2022/12/07 11:27:45;;;;;;;9.73;5.63;;;;;;;;;;5034653;28;20021;-74
2022/12/07 11:30:14;;;;;;;11.07;5.13;;;;;;;;;;5025734;28;20022;-74
2022/12/07 11:32:47;;;;;;;9.32;5.43;;;;;;;;;;5032025;28;20029;-77
2022/12/07 11:35:31;;;;;;;11.88;6.22;;;;;;;;;;5019934;28;20079;-76
2022/12/07 11:38:16;;;;;;;11.32;6.60;;;;;;;;;;5036234;28;20028;-72
2022/12/07 11:40:45;;;;;;;11.63;6.90;;;;;;;;;;5035772;28;20498;-77
2022/12/07 11:43:23;;;;;;;17.98;7.82;;;;;;;;;;5047814;28;20032;-77
2022/12/07 11:46:15;;;;;;;15.23;8.00;;;;;;;;;;5049999;28;20336;-76
2022/12/07 11:48:54;;;;;;;11.02;7.28;;;;;;;;;;5018626;28;20131;-76
2022/12/07 11:51:37;;;;;;;16.58;8.90;;;;;;;;;;5049242;28;20104;-77
2022/12/07 11:54:06;;;;;;;13.95;8.20;;;;;;;;;;5031576;28;20087;-79
2022/12/07 11:56:38;;;;;;;16.85;8.95;;;;;;;;;;5045429;28;20106;-76
2022/12/07 11:59:12;;;;;;;15.55;9.20;;;;;;;;;;5035418;28;20454;-76
2022/12/07 12:01:38;;;;;;;16.50;9.55;;;;;;;;;;5045188;28;20038;-75
2022/12/07 12:04:10;;;;;;;18.17;9.85;;;;;;;;;;5042713;28;20136;-76
2022/12/07 12:06:40;;;;;;;17.70;10.00;;;;;;;;;;5038986;28;20526;-76
2022/12/07 12:09:12;;;;;;;16.73;9.23;;;;;;;;;;5057897;28;20100;-76
2022/12/07 12:11:47;;;;;;;16.63;9.23;;;;;;;;;;5039467;28;20025;-76
2022/12/07 12:14:12;;;;;;;13.25;7.95;;;;;;;;;;5045340;28;20096;-76
2022/12/07 12:16:57;;;;;;;13.10;7.35;;;;;;;;;;5035363;28;20171;-76
2022/12/07 12:19:33;;;;;;;11.80;6.88;;;;;;;;;;5038259;28;20025;-77
2022/12/07 12:22:18;;;;;;;17.60;7.57;;;;;;;;;;5044141;28;20108;-76
2022/12/07 12:24:46;;;;;;;9.55;6.35;;;;;;;;;;5048910;28;20064;-74
2022/12/07 12:27:21;;;;;;;13.63;6.25;;;;;;;;;;5036801;28;20028;-75
2022/12/07 12:29:57;;;;;;;11.25;6.28;;;;;;;;;;5053485;28;20017;-74
2022/12/07 12:32:35;;;;;;;10.68;5.93;;;;;;;;;;5041074;28;20071;-76
2022/12/07 12:50:45;;;;;;;5.90;3.15;;;;;;;;;;4578525;22;20029;-80
2022/12/07 13:17:45;;;;;;;;;;;;;;;;;;;;;
2022/12/07 13:31:10;;;;;;;15.38;8.18;;;;;;;;;;5052053;28;20047;-77
2022/12/07 13:34:11;;;;;;;;;;;;;;;;;;;;;
2022/12/07 13:40:21;;;;;;;;;;;;;;;;;;;;;
2022/12/07 13:43:15;;;;;;;19.20;9.52;;;;;;;;;;5033422;28;20034;-74
2022/12/07 13:49:19;;;;;;;11.63;6.57;;;;;;;;;;5020745;28;20034;-77
2022/12/07 13:52:05;;;;;;;10.73;5.88;;;;;;;;;;4990499;28;20030;-77
2022/12/07 13:55:04;;;;;;;11.38;6.32;;;;;;;;;;5009106;28;20053;-77
2022/12/07 13:58:56;;;;;;;;;;;;;;;;;;;;;
2022/12/07 14:01:18;;;;;;;;;;;;;;;;;;;;;
2022/12/07 14:10:04;;;;;;;14.30;7.65;;;;;;;;;;5016216;28;20041;-76
2022/12/07 14:22:42;;;;;;;;;;;;;;;;;;;;;
2022/12/07 14:55:45;;;;;;;;;;;;;;;;;;;;;
2022/12/07 15:07:34;;;;;;;;;;;;;;;;;;;;;
2022/12/07 15:27:35;;;;;;;;;;;;;;;;;;;;;
2022/12/07 15:33:14;;;;;;;5.90;3.22;;;;;;;;;;5073100;28;20025;-77
2022/12/07 15:42:08;;;;;;;;;;;;;;;;;;;;;
2022/12/07 15:50:58;;;;;;;5.45;2.85;;;;;;;;;;4971611;28;20030;-75
2022/12/07 15:57:12;;;;;;;5.78;3.45;;;;;;;;;;4956441;28;20031;-77
2022/12/07 16:00:10;;;;;;;;;;;;;;;;;;;;;
2022/12/07 16:08:53;;;;;;;6.25;3.47;;;;;;;;;;5070405;22;20582;-76
2022/12/07 16:14:44;;;;;;;9.20;5.18;;;;;;;;;;4978289;28;20097;-77
2022/12/07 16:23:50;;;;;;;17.13;6.35;;;;;;;;;;4926846;28;20043;-78
2022/12/07 16:26:54;;;;;;;16.98;5.22;;;;;;;;;;4932817;28;20122;-76
2022/12/07 16:40:08;;;;;;;;;;;;;;;;;;;;;
2022/12/07 16:43:22;;;;;;;;;;;;;;;;;;;;;
2022/12/07 16:46:31;;;;;;;;;;;;;;;;;;;;;
2022/12/07 17:00:07;;;;;;;;;;;;;;;;;;;;;
2022/12/07 17:05:14;;;;;;;6.43;3.25;;;;;;;;;;5034162;28;20469;-77
2022/12/07 17:07:43;;;;;;;7.88;3.53;;;;;;;;;;5049990;28;20028;-79
2022/12/07 17:20:16;;;;;;;10.43;6.38;;;;;;;;;;5042239;28;20524;-76
2022/12/07 17:23:08;;;;;;;9.02;5.30;;;;;;;;;;5107077;28;20054;-76
2022/12/07 17:28:58;;;;;;;6.13;4.00;;;;;;;;;;5077891;28;20066;-77
2022/12/07 17:35:31;;;;;;;9.05;3.83;;;;;;;;;;5004080;28;20041;-78
2022/12/07 17:38:15;;;;;;;9.13;4.28;;;;;;;;;;4997033;28;20053;-77
2022/12/07 17:42:35;;;;;;;8.23;5.38;;;;;;;;;;5022980;28;20538;-77
2022/12/07 17:44:15;;;;;;;7.80;4.32;;;;;;;;;;4982070;28;20033;-77
2022/12/07 17:47:11;;;;;;;;;;;;;;;;;;;;;
2022/12/07 17:50:12;;;;;;;12.68;5.13;;;;;;;;;;5008887;28;20052;-77
2022/12/07 17:56:03;;;;;;;;;;;;;;;;;;;;;
2022/12/07 18:01:49;;;;;;;9.25;4.93;;;;;;;;;;5056133;28;20036;-77
2022/12/07 18:04:48;;;;;;;;;;;;;;;;;;;;;
2022/12/07 18:07:27;;;;;;;7.28;4.50;;;;;;;;;;5034426;28;20097;-79
2022/12/07 18:19:43;;;;;;;7.50;3.83;;;;;;;;;;4989799;28;20056;-76
2022/12/07 18:22:30;;;;;;;8.82;3.03;;;;;;;;;;4988526;28;20192;-77
2022/12/07 18:30:37;;;;;;;;;;;;;;;;;;;;;
2022/12/07 18:33:29;;;;;;;10.38;3.38;;;;;;;;;;5013806;28;20041;-78
2022/12/07 18:36:05;;;;;;;6.93;3.33;;;;;;;;;;5072085;23;20056;-74
2022/12/07 18:48:33;;;;;;;5.47;2.67;;;;;;;;;;4994426;28;20104;-75
2022/12/07 18:51:27;;;;;;;4.47;2.40;;;;;;;;;;4981730;28;20050;-77
2022/12/07 19:03:45;;;;;;;7.75;2.78;;;;;;;;;;4918274;29;20046;-78
2022/12/07 19:09:17;;;;;;;;;;;;;;;;;;;;;
2022/12/07 19:20:42;;;;;;;6.05;3.50;;;;;;;;;;5028367;28;20048;-77
2022/12/07 19:29:55;;;;;;;9.25;4.53;;;;;;;;;;4976544;28;20102;-78
2022/12/07 19:35:35;;;;;;;8.35;3.97;;;;;;;;;;5061989;28;20028;-75
2022/12/07 19:38:16;;;;;;;10.63;5.07;;;;;;;;;;5064678;28;20028;-78
2022/12/07 19:44:05;;;;;;;7.50;4.03;;;;;;;;;;5042981;28;20048;-80
2022/12/07 19:47:19;;;;;;;;;;;;;;;;;;;;;
2022/12/07 19:49:46;;;;;;;11.23;5.55;;;;;;;;;;4991782;28;20043;-78
2022/12/07 19:53:00;;;;;;;;;;;;;;;;;;;;;
2022/12/07 19:55:51;;;;;;;8.85;5.00;;;;;;;;;;5053761;28;20025;-76
2022/12/07 19:59:02;;;;;;;7.65;4.60;;;;;;;;;;5049165;28;20541;-80
2022/12/07 20:01:46;;;;;;;12.73;4.50;;;;;;;;;;5053380;28;20406;-79
2022/12/07 20:04:54;;;;;;;10.40;4.95;;;;;;;;;;5046431;28;20540;-79
2022/12/07 20:07:58;;;;;;;;;;;;;;;;;;;;;
2022/12/07 20:13:43;;;;;;;7.95;3.80;;;;;;;;;;4957030;28;20082;-76
2022/12/07 20:32:40;;;;;;;;;;;;;;;;;;;;;
2022/12/07 20:36:09;;;;;;;;;;;;;;;;;;;;;
2022/12/07 20:51:25;;;;;;;13.48;4.95;;;;;;;;;;5020111;28;20030;-77
2022/12/07 21:00:10;;;;;;;9.02;4.45;;;;;;;;;;4927034;29;20505;-78
2022/12/07 21:02:38;;;;;;;8.32;4.25;;;;;;;;;;4952229;28;20565;-78
2022/12/07 21:17:12;;;;;;;9.95;4.90;;;;;;;;;;4995325;28;20065;-75
2022/12/07 21:23:32;;;;;;;11.30;4.80;;;;;;;;;;4931744;29;20039;-75
2022/12/07 21:26:22;;;;;;;10.93;5.07;;;;;;;;;;4842445;29;20600;-77
2022/12/07 21:29:19;;;;;;;9.85;4.70;;;;;;;;;;4839688;29;20532;-77
2022/12/07 21:32:31;;;;;;;;;;;;;;;;;;;;;
2022/12/07 21:41:34;;;;;;;8.90;4.90;;;;;;;;;;4932041;29;20035;-76
2022/12/07 21:44:24;;;;;;;12.80;5.35;;;;;;;;;;4903940;29;20348;-78
2022/12/07 21:53:47;;;;;;;7.97;4.93;;;;;;;;;;4891626;29;20033;-76
2022/12/07 21:56:48;;;;;;;8.88;5.28;;;;;;;;;;4839755;29;20034;-77
2022/12/07 21:59:48;;;;;;;8.10;4.80;;;;;;;;;;4918707;28;20035;-77
2022/12/07 22:08:14;;;;;;;9.95;4.82;;;;;;;;;;5526133;22;20519;-78